createdAt,value
2019-01-13T00:03:56.448Z,-2.21
2019-01-13T00:18:59.003Z,-2.09
2019-01-13T00:34:01.633Z,-2.10
2019-01-13T00:49:05.789Z,-2.25
2019-01-13T01:04:11.223Z,-2.46
2019-01-13T01:19:13.793Z,-3.04
2019-01-13T01:34:16.456Z,-3.18
2019-01-13T01:49:19.042Z,-2.85
2019-01-13T02:04:21.658Z,-2.61
2019-01-13T02:19:24.305Z,-2.63
2019-01-13T02:34:28.002Z,-2.76
2019-01-13T02:49:33.532Z,-2.83
2019-01-13T03:05:06.709Z,-2.74
2019-01-13T03:20:39.525Z,-2.43
2019-01-13T03:36:12.754Z,-2.42
2019-01-13T03:51:46.063Z,-2.32
2019-01-13T04:07:19.023Z,-2.24
2019-01-13T04:22:52.600Z,-2.16
2019-01-13T04:38:25.504Z,-2.16
2019-01-13T04:53:58.281Z,-2.15
2019-01-13T05:09:31.920Z,-2.08
2019-01-13T05:25:05.592Z,-1.93
2019-01-13T05:40:39.580Z,-1.85
2019-01-13T05:56:12.548Z,-1.69
2019-01-13T06:11:45.591Z,-1.57
2019-01-13T06:27:18.813Z,-1.45
2019-01-13T06:42:51.755Z,-1.25
2019-01-13T06:58:24.887Z,-0.81
2019-01-13T07:13:57.933Z,-0.33
2019-01-13T07:29:30.766Z,-0.06
2019-01-13T07:45:04.152Z,0.85
2019-01-13T08:00:44.679Z,-1.22
2019-01-13T08:16:18.348Z,-0.67
2019-01-13T08:31:51.910Z,-0.27
2019-01-13T08:47:25.059Z,0.00
2019-01-13T09:02:58.788Z,-0.40
2019-01-13T09:18:31.652Z,0.21
2019-01-13T09:34:04.841Z,3.56
2019-01-13T09:49:37.964Z,7.40
2019-01-13T10:05:11.465Z,8.72
2019-01-13T10:20:44.619Z,9.62
2019-01-13T10:36:17.560Z,8.40
2019-01-13T10:51:50.628Z,8.21
2019-01-13T11:07:23.771Z,7.36
2019-01-13T11:22:56.655Z,5.31
2019-01-13T11:38:29.504Z,5.45
2019-01-13T11:54:02.816Z,3.41
2019-01-13T12:09:35.860Z,3.05
2019-01-13T12:25:08.968Z,2.41
2019-01-13T12:40:44.174Z,2.61
2019-01-13T12:56:17.121Z,2.88
2019-01-13T13:11:49.974Z,2.02
2019-01-13T13:27:22.902Z,2.05
2019-01-13T13:42:55.847Z,1.56
2019-01-13T13:58:29.109Z,1.34
2019-01-13T14:14:02.328Z,1.38
2019-01-13T14:29:36.042Z,1.36
2019-01-13T14:45:09.051Z,1.17
2019-01-13T15:00:45.309Z,0.50
2019-01-13T15:16:18.183Z,0.17
2019-01-13T15:31:51.267Z,-0.13
2019-01-13T15:47:24.583Z,-0.21
2019-01-13T16:02:57.680Z,-0.32
2019-01-13T16:18:30.626Z,-0.19
2019-01-13T16:34:03.758Z,-0.39
2019-01-13T16:49:37.351Z,-0.45
2019-01-13T17:05:10.384Z,-0.35
2019-01-13T17:20:44.623Z,-0.24
2019-01-13T17:36:17.819Z,-0.32
2019-01-13T17:51:50.686Z,-0.20
2019-01-13T18:07:24.129Z,-0.51
2019-01-13T18:22:57.326Z,-0.36
2019-01-13T18:38:30.713Z,-0.15
2019-01-13T18:54:03.798Z,0.16
2019-01-13T19:09:37.536Z,0.07
2019-01-13T19:25:10.542Z,0.07
2019-01-13T19:40:43.900Z,0.04
2019-01-13T19:56:16.699Z,-0.50
2019-01-13T20:11:50.341Z,-0.71
2019-01-13T20:27:24.071Z,-1.12
2019-01-13T20:42:56.830Z,-1.33
2019-01-13T20:58:29.533Z,-2.26
2019-01-13T21:14:02.604Z,-2.54
2019-01-13T21:29:35.971Z,-2.79
2019-01-13T21:45:09.494Z,-3.11
2019-01-13T22:00:44.819Z,-2.96
2019-01-13T22:16:18.094Z,-2.90
2019-01-13T22:31:51.174Z,-3.13
2019-01-13T22:47:24.188Z,-2.74
2019-01-13T23:02:57.033Z,-3.35
2019-01-13T23:18:30.398Z,-3.75
2019-01-13T23:34:03.375Z,-3.73
2019-01-13T23:49:36.999Z,-3.84
